createdAt,value
2023-05-10T00:02:49.191Z,100619.16
2023-05-10T00:05:51.627Z,100613.47
2023-05-10T00:08:53.958Z,100612.47
2023-05-10T00:11:56.305Z,100612.47
2023-05-10T00:14:58.624Z,100610.41
2023-05-10T00:18:00.981Z,100607.66
2023-05-10T00:21:03.409Z,100596.34
2023-05-10T00:24:05.907Z,100603.81
2023-05-10T00:27:08.212Z,100607.50
2023-05-10T00:30:10.763Z,100606.81
2023-05-10T00:33:13.505Z,100600.00
2023-05-10T00:36:15.940Z,100599.03
2023-05-10T00:39:18.281Z,100590.44
2023-05-10T00:42:20.577Z,100585.88
2023-05-10T00:45:23.162Z,100578.66
2023-05-10T00:48:26.637Z,100577.44
2023-05-10T00:51:28.983Z,100581.38
2023-05-10T00:54:31.341Z,100584.41
2023-05-10T00:57:33.639Z,100583.84
2023-05-10T01:00:35.955Z,100571.34
2023-05-10T01:03:38.390Z,100581.53
2023-05-10T01:06:41.416Z,100572.78
2023-05-10T01:09:43.712Z,100572.88
2023-05-10T01:12:48.187Z,100562.41
2023-05-10T01:15:51.036Z,100556.84
2023-05-10T01:18:53.379Z,100560.84
2023-05-10T01:22:04.280Z,100567.41
2023-05-10T01:25:09.631Z,100561.06
2023-05-10T01:28:36.549Z,100564.50
2023-05-10T01:32:03.261Z,100560.22
2023-05-10T01:35:16.748Z,100566.47
2023-05-10T01:38:27.037Z,100565.03
2023-05-10T01:41:42.105Z,100562.19
2023-05-10T01:44:50.772Z,100555.47
2023-05-10T01:47:59.548Z,100557.53
2023-05-10T01:51:02.230Z,100553.22
2023-05-10T01:54:04.608Z,100534.03
2023-05-10T01:57:08.483Z,100549.56
2023-05-10T02:00:11.740Z,100544.28
2023-05-10T02:03:17.070Z,100544.19
2023-05-10T02:06:19.988Z,100546.06
2023-05-10T02:09:22.323Z,100542.84
2023-05-10T02:12:26.575Z,100536.22
2023-05-10T02:15:28.905Z,100533.09
2023-05-10T02:18:31.472Z,100526.66
2023-05-10T02:21:33.902Z,100515.34
2023-05-10T02:24:36.376Z,100524.34
2023-05-10T02:27:38.789Z,100524.41
2023-05-10T02:30:41.185Z,100525.03
2023-05-10T02:33:43.501Z,100511.56
2023-05-10T02:36:45.912Z,100517.50
2023-05-10T02:39:49.042Z,100523.22
2023-05-10T02:42:52.701Z,100516.22
2023-05-10T02:45:55.101Z,100527.50
2023-05-10T02:48:57.436Z,100508.56
2023-05-10T02:52:02.186Z,100509.56
2023-05-10T02:55:05.113Z,100507.78
2023-05-10T02:58:07.834Z,100517.50
2023-05-10T03:01:10.735Z,100511.72
2023-05-10T03:04:13.146Z,100513.88
2023-05-10T03:07:15.567Z,100512.59
2023-05-10T03:10:18.428Z,100513.31
2023-05-10T03:13:42.144Z,100515.91
2023-05-10T03:16:48.284Z,100524.91
2023-05-10T03:19:54.824Z,100515.75
2023-05-10T03:23:22.113Z,100525.72
2023-05-10T03:26:28.280Z,100521.44
2023-05-10T03:29:39.425Z,100523.13
2023-05-10T03:32:41.820Z,100518.13
2023-05-10T03:35:46.771Z,100512.41
2023-05-10T03:38:50.471Z,100514.38
2023-05-10T03:41:53.364Z,100510.81
2023-05-10T03:44:55.805Z,100523.41
2023-05-10T03:47:58.949Z,100526.63
2023-05-10T03:51:01.795Z,100517.06
2023-05-10T03:54:04.286Z,100524.47
2023-05-10T03:57:06.844Z,100523.94
2023-05-10T04:00:09.968Z,100523.94
2023-05-10T04:03:18.801Z,100530.47
2023-05-10T04:06:21.388Z,100521.09
2023-05-10T04:09:23.820Z,100526.81
2023-05-10T04:12:26.225Z,100525.69
2023-05-10T04:15:28.541Z,100518.31
2023-05-10T04:18:31.328Z,100529.19
2023-05-10T04:21:33.640Z,100530.41
2023-05-10T04:24:35.971Z,100521.38
2023-05-10T04:27:38.317Z,100528.56
2023-05-10T04:30:41.582Z,100517.22
2023-05-10T04:33:43.943Z,100516.38
2023-05-10T04:36:46.277Z,100515.53
2023-05-10T04:39:48.669Z,100521.34
2023-05-10T04:42:50.991Z,100509.75
2023-05-10T04:45:53.395Z,100517.16
2023-05-10T04:48:55.768Z,100516.94
2023-05-10T04:51:58.055Z,100524.75
2023-05-10T04:55:00.386Z,100522.13
2023-05-10T04:58:03.890Z,100515.72
2023-05-10T05:01:10.486Z,100512.34
2023-05-10T05:04:12.864Z,100517.56
2023-05-10T05:07:15.242Z,100518.50
2023-05-10T05:10:17.741Z,100515.28
2023-05-10T05:13:20.437Z,100517.53
2023-05-10T05:16:22.896Z,100525.75
2023-05-10T05:19:25.415Z,100527.41
2023-05-10T05:22:30.255Z,100527.25
2023-05-10T05:25:32.656Z,100518.72
2023-05-10T05:28:38.145Z,100523.06
2023-05-10T05:31:40.617Z,100536.78
2023-05-10T05:34:43.004Z,100532.69
2023-05-10T05:37:45.379Z,100534.81
2023-05-10T05:40:47.734Z,100541.34
2023-05-10T05:43:50.069Z,100543.00
2023-05-10T05:46:52.432Z,100537.03
2023-05-10T05:49:54.778Z,100539.91
2023-05-10T05:52:58.283Z,100542.09
2023-05-10T05:56:00.655Z,100542.94
2023-05-10T05:59:03.042Z,100541.03
2023-05-10T06:02:05.420Z,100543.69
2023-05-10T06:05:08.798Z,100543.34
2023-05-10T06:08:11.278Z,100538.94
2023-05-10T06:11:13.596Z,100550.38
2023-05-10T06:14:15.888Z,100551.13
2023-05-10T06:17:18.158Z,100543.00
2023-05-10T06:20:20.498Z,100545.25
2023-05-10T06:23:23.622Z,100537.47
2023-05-10T06:26:25.934Z,100546.50
2023-05-10T06:29:28.275Z,100542.72
2023-05-10T06:32:30.732Z,100540.38
2023-05-10T06:35:34.569Z,100539.97
2023-05-10T06:38:37.104Z,100544.41
2023-05-10T06:41:39.473Z,100551.59
2023-05-10T06:44:41.807Z,100553.22
2023-05-10T06:47:44.237Z,100546.22
2023-05-10T06:50:46.566Z,100558.25
2023-05-10T06:53:48.865Z,100540.00
2023-05-10T06:56:51.230Z,100547.81
2023-05-10T06:59:53.565Z,100548.81
2023-05-10T07:02:56.153Z,100537.63
2023-05-10T07:06:04.931Z,100544.00
2023-05-10T07:09:08.703Z,100546.03
2023-05-10T07:12:13.451Z,100538.94
2023-05-10T07:15:17.846Z,100539.31
2023-05-10T07:18:20.476Z,100527.81
2023-05-10T07:21:25.094Z,100540.84
2023-05-10T07:24:27.528Z,100547.28
2023-05-10T07:27:29.843Z,100542.41
2023-05-10T07:30:32.257Z,100534.91
2023-05-10T07:33:34.599Z,100538.69
2023-05-10T07:36:36.919Z,100537.31
2023-05-10T07:39:39.236Z,100540.75
2023-05-10T07:42:41.520Z,100543.00
2023-05-10T07:45:44.316Z,100538.53
2023-05-10T07:48:46.885Z,100529.88
2023-05-10T07:51:49.519Z,100528.69
2023-05-10T07:54:51.941Z,100536.16
2023-05-10T07:57:54.282Z,100543.69
2023-05-10T08:00:57.495Z,100543.91
2023-05-10T08:03:59.835Z,100543.06
2023-05-10T08:07:02.320Z,100542.78
2023-05-10T08:10:04.976Z,100541.56
2023-05-10T08:13:07.258Z,100545.78
2023-05-10T08:16:09.648Z,100550.81
2023-05-10T08:19:12.102Z,100537.16
2023-05-10T08:22:14.477Z,100532.19
2023-05-10T08:25:17.271Z,100538.09
2023-05-10T08:28:19.714Z,100536.22
2023-05-10T08:31:22.217Z,100527.94
2023-05-10T08:34:25.022Z,100531.06
2023-05-10T08:37:27.560Z,100537.16
2023-05-10T08:40:29.960Z,100517.97
2023-05-10T08:43:32.524Z,100534.31
2023-05-10T08:46:36.535Z,100538.09
2023-05-10T08:49:38.910Z,100532.94
2023-05-10T08:52:41.331Z,100524.66
2023-05-10T08:55:43.887Z,100523.19
2023-05-10T08:58:46.221Z,100527.31
2023-05-10T09:01:50.402Z,100519.84
2023-05-10T09:04:52.951Z,100520.78
2023-05-10T09:07:55.310Z,100502.69
2023-05-10T09:10:57.670Z,100523.56
2023-05-10T09:14:00.018Z,100509.50
2023-05-10T09:17:02.445Z,100513.28
2023-05-10T09:20:05.381Z,100510.91
2023-05-10T09:23:07.993Z,100506.97
2023-05-10T09:26:10.275Z,100499.00
2023-05-10T09:29:13.418Z,100497.03
2023-05-10T09:32:17.032Z,100501.88
2023-05-10T09:35:25.036Z,100490.81
2023-05-10T09:38:28.269Z,100486.50
2023-05-10T09:41:30.672Z,100480.41
2023-05-10T09:44:34.003Z,100488.59
2023-05-10T09:47:37.038Z,100485.09
2023-05-10T09:50:39.888Z,100484.13
2023-05-10T09:53:42.220Z,100485.25
2023-05-10T09:56:44.560Z,100479.06
2023-05-10T09:59:46.889Z,100478.03
2023-05-10T10:02:59.441Z,100479.41
2023-05-10T10:06:01.991Z,100474.22
2023-05-10T10:09:04.647Z,100472.16
2023-05-10T10:12:07.186Z,100480.34
2023-05-10T10:15:10.277Z,100467.28
2023-05-10T10:18:18.329Z,100470.28
2023-05-10T10:21:21.400Z,100469.94
2023-05-10T10:24:24.920Z,100472.84
2023-05-10T10:27:38.164Z,100476.97
2023-05-10T10:30:44.971Z,100476.44
2023-05-10T10:34:17.305Z,100475.97
2023-05-10T10:37:19.613Z,100449.25
2023-05-10T10:40:30.877Z,100459.47
2023-05-10T10:43:35.039Z,100469.19
2023-05-10T10:46:37.687Z,100458.03
2023-05-10T10:49:43.654Z,100461.19
2023-05-10T10:52:46.540Z,100463.56
2023-05-10T10:55:49.298Z,100451.97
2023-05-10T10:58:54.713Z,100452.34
2023-05-10T11:01:57.165Z,100447.44
2023-05-10T11:04:59.559Z,100450.91
2023-05-10T11:08:07.480Z,100425.00
2023-05-10T11:11:10.150Z,100438.69
2023-05-10T11:14:12.469Z,100436.25
2023-05-10T11:17:28.094Z,100434.72
2023-05-10T11:20:34.498Z,100432.50
2023-05-10T11:23:49.695Z,100438.19
2023-05-10T11:26:55.179Z,100427.97
2023-05-10T11:29:57.490Z,100421.53
2023-05-10T11:32:59.877Z,100419.75
2023-05-10T11:36:02.275Z,100423.03
2023-05-10T11:39:05.074Z,100415.44
2023-05-10T11:42:10.215Z,100419.25
2023-05-10T11:45:12.552Z,100419.41
2023-05-10T11:48:14.918Z,100415.34
2023-05-10T11:51:23.693Z,100418.41
2023-05-10T11:54:26.116Z,100410.56
2023-05-10T11:57:29.593Z,100409.81
2023-05-10T12:00:32.152Z,100412.59
2023-05-10T12:03:35.039Z,100414.91
2023-05-10T12:06:39.775Z,100415.75
2023-05-10T12:09:46.066Z,100413.69
2023-05-10T12:12:51.217Z,100409.72
2023-05-10T12:15:53.556Z,100392.81
2023-05-10T12:18:58.316Z,100404.63
2023-05-10T12:22:01.133Z,100393.28
2023-05-10T12:25:03.802Z,100393.03
2023-05-10T12:28:08.207Z,100389.84
2023-05-10T12:31:10.585Z,100379.56
2023-05-10T12:34:12.911Z,100384.53
2023-05-10T12:37:15.250Z,100383.25
2023-05-10T12:40:18.041Z,100378.25
2023-05-10T12:43:20.550Z,100372.44
2023-05-10T12:46:26.345Z,100386.47
2023-05-10T12:49:28.825Z,100378.41
2023-05-10T12:52:32.649Z,100370.34
2023-05-10T12:55:34.960Z,100363.66
2023-05-10T12:58:37.290Z,100365.66
2023-05-10T13:01:39.753Z,100361.56
2023-05-10T13:04:43.014Z,100359.50
2023-05-10T13:07:45.522Z,100362.94
2023-05-10T13:10:47.854Z,100352.34
2023-05-10T13:13:50.229Z,100342.56
2023-05-10T13:16:52.536Z,100344.19
2023-05-10T13:19:54.837Z,100336.66
2023-05-10T13:22:57.197Z,100329.25
2023-05-10T13:25:59.571Z,100330.34
2023-05-10T13:29:01.913Z,100331.56
2023-05-10T13:32:04.355Z,100329.16
2023-05-10T13:35:07.715Z,100323.25
2023-05-10T13:38:10.423Z,100325.09
2023-05-10T13:41:12.721Z,100320.28
2023-05-10T13:44:17.778Z,100319.31
2023-05-10T13:47:20.124Z,100313.50
2023-05-10T13:50:22.401Z,100308.63
2023-05-10T13:53:24.762Z,100312.75
2023-05-10T13:56:27.155Z,100310.75
2023-05-10T13:59:29.815Z,100287.59
2023-05-10T14:02:32.466Z,100310.31
2023-05-10T14:05:34.870Z,100311.09
2023-05-10T14:08:37.577Z,100294.47
2023-05-10T14:11:44.062Z,100296.06
2023-05-10T14:14:46.587Z,100296.84
2023-05-10T14:17:49.197Z,100305.53
2023-05-10T14:20:51.550Z,100298.03
2023-05-10T14:23:53.852Z,100288.03
2023-05-10T14:26:56.173Z,100288.66
2023-05-10T14:29:58.472Z,100287.88
2023-05-10T14:33:03.349Z,100288.94
2023-05-10T14:36:06.084Z,100286.03
2023-05-10T14:39:09.051Z,100282.03
2023-05-10T14:42:11.643Z,100278.09
2023-05-10T14:45:14.065Z,100278.91
2023-05-10T14:48:18.523Z,100281.25
2023-05-10T14:51:22.822Z,100283.06
2023-05-10T14:54:25.182Z,100287.72
2023-05-10T14:57:30.563Z,100288.44
2023-05-10T15:00:32.969Z,100278.25
2023-05-10T15:03:36.053Z,100279.38
2023-05-10T15:06:39.253Z,100275.50
2023-05-10T15:09:41.556Z,100276.34
2023-05-10T15:12:43.889Z,100272.91
2023-05-10T15:15:46.212Z,100270.28
2023-05-10T15:18:49.421Z,100265.31
2023-05-10T15:21:51.804Z,100278.25
2023-05-10T15:24:54.123Z,100275.78
2023-05-10T15:27:56.560Z,100274.41
2023-05-10T15:31:01.358Z,100276.72
2023-05-10T15:34:04.490Z,100276.50
2023-05-10T15:37:07.248Z,100272.22
2023-05-10T15:40:09.967Z,100275.06
2023-05-10T15:43:12.503Z,100266.78
2023-05-10T15:46:15.046Z,100270.22
2023-05-10T15:49:18.826Z,100266.59
2023-05-10T15:52:21.685Z,100257.09
2023-05-10T15:55:24.036Z,100257.31
2023-05-10T15:58:26.336Z,100254.94
2023-05-10T16:01:28.751Z,100259.41
2023-05-10T16:04:31.083Z,100220.78
2023-05-10T16:07:33.988Z,100255.00
2023-05-10T16:10:36.905Z,100251.72
2023-05-10T16:13:39.249Z,100252.72
2023-05-10T16:16:41.918Z,100255.19
2023-05-10T16:19:44.333Z,100260.75
2023-05-10T16:22:46.642Z,100260.78
2023-05-10T16:25:48.968Z,100258.16
2023-05-10T16:28:51.330Z,100257.81
2023-05-10T16:31:54.049Z,100266.41
2023-05-10T16:34:56.413Z,100251.28
2023-05-10T16:37:58.749Z,100267.69
2023-05-10T16:41:03.983Z,100264.13
2023-05-10T16:44:06.348Z,100264.88
2023-05-10T16:47:08.673Z,100273.75
2023-05-10T16:50:11.567Z,100279.25
2023-05-10T16:53:14.155Z,100285.81
2023-05-10T16:56:18.387Z,100279.88
2023-05-10T16:59:20.897Z,100283.47
2023-05-10T17:02:23.593Z,100289.19
2023-05-10T17:05:26.271Z,100291.91
2023-05-10T17:08:28.624Z,100296.84
2023-05-10T17:11:31.299Z,100298.44
2023-05-10T17:14:33.587Z,100300.91
2023-05-10T17:17:36.164Z,100299.00
2023-05-10T17:20:38.472Z,100303.88
2023-05-10T17:23:40.884Z,100300.94
2023-05-10T17:26:43.311Z,100295.81
2023-05-10T17:29:45.773Z,100292.88
2023-05-10T17:32:48.124Z,100302.19
2023-05-10T17:35:50.612Z,100302.66
2023-05-10T17:38:53.000Z,100305.69
2023-05-10T17:41:55.353Z,100303.94
2023-05-10T17:44:57.751Z,100308.44
2023-05-10T17:48:00.016Z,100311.66
2023-05-10T17:51:02.721Z,100304.53
2023-05-10T17:54:05.112Z,100305.84
2023-05-10T17:57:07.634Z,100319.53
2023-05-10T18:00:10.508Z,100314.41
2023-05-10T18:03:12.770Z,100318.09
2023-05-10T18:06:15.094Z,100314.22
2023-05-10T18:09:18.189Z,100317.16
2023-05-10T18:12:20.505Z,100325.19
2023-05-10T18:15:23.111Z,100329.16
2023-05-10T18:18:25.584Z,100326.03
2023-05-10T18:21:27.976Z,100328.19
2023-05-10T18:24:39.425Z,100322.72
2023-05-10T18:27:42.469Z,100336.88
2023-05-10T18:30:45.053Z,100337.78
2023-05-10T18:33:47.363Z,100335.06
2023-05-10T18:36:49.703Z,100345.22
2023-05-10T18:39:52.052Z,100350.25
2023-05-10T18:42:54.408Z,100342.84
2023-05-10T18:45:57.358Z,100360.84
2023-05-10T18:48:59.709Z,100350.16
2023-05-10T18:52:02.095Z,100360.84
2023-05-10T18:55:04.799Z,100350.84
2023-05-10T18:58:07.116Z,100360.84
2023-05-10T19:01:09.487Z,100362.47
2023-05-10T19:04:11.824Z,100375.47
2023-05-10T19:07:14.205Z,100377.63
2023-05-10T19:10:16.574Z,100370.91
2023-05-10T19:13:19.039Z,100373.38
2023-05-10T19:16:24.089Z,100381.94
2023-05-10T19:19:27.527Z,100393.44
2023-05-10T19:25:35.440Z,100393.63
2023-05-10T19:28:37.952Z,100394.31
2023-05-10T19:31:40.466Z,100383.66
2023-05-10T19:34:43.065Z,100397.34
2023-05-10T19:37:47.262Z,100397.50
2023-05-10T19:40:59.411Z,100393.78
2023-05-10T19:44:01.970Z,100388.31
2023-05-10T19:47:05.365Z,100397.88
2023-05-10T19:50:08.233Z,100395.59
2023-05-10T19:53:10.850Z,100393.19
2023-05-10T19:56:13.326Z,100391.97
2023-05-10T19:59:15.648Z,100395.94
2023-05-10T20:02:18.297Z,100401.84
2023-05-10T20:05:21.235Z,100383.09
2023-05-10T20:08:23.551Z,100388.09
2023-05-10T20:11:25.889Z,100392.50
2023-05-10T20:14:28.196Z,100390.72
2023-05-10T20:17:30.551Z,100396.97
2023-05-10T20:20:32.967Z,100405.28
2023-05-10T20:23:35.347Z,100404.72
2023-05-10T20:26:39.818Z,100398.59
2023-05-10T20:29:42.188Z,100401.97
2023-05-10T20:32:44.616Z,100403.75
2023-05-10T20:35:47.000Z,100405.19
2023-05-10T20:38:49.299Z,100407.25
2023-05-10T20:41:52.489Z,100403.47
2023-05-10T20:44:54.842Z,100405.50
2023-05-10T20:47:57.741Z,100406.44
2023-05-10T20:51:03.207Z,100400.19
2023-05-10T20:54:05.754Z,100400.84
2023-05-10T20:57:08.170Z,100398.50
2023-05-10T21:00:10.964Z,100396.97
2023-05-10T21:03:14.348Z,100388.44
2023-05-10T21:06:16.672Z,100395.97
2023-05-10T21:09:18.996Z,100384.56
2023-05-10T21:12:21.307Z,100383.63
2023-05-10T21:15:24.516Z,100386.38
2023-05-10T21:18:26.878Z,100384.69
2023-05-10T21:21:29.433Z,100378.53
2023-05-10T21:24:31.814Z,100387.16
2023-05-10T21:27:34.932Z,100382.72
2023-05-10T21:30:37.272Z,100388.63
2023-05-10T21:33:39.672Z,100385.09
2023-05-10T21:36:42.014Z,100386.53
2023-05-10T21:39:44.536Z,100386.81
2023-05-10T21:42:49.708Z,100387.53
2023-05-10T21:45:52.056Z,100387.59
2023-05-10T21:48:54.413Z,100384.03
2023-05-10T21:51:56.839Z,100383.47
2023-05-10T21:54:59.162Z,100379.47
2023-05-10T21:58:01.486Z,100385.00
2023-05-10T22:01:03.903Z,100385.47
2023-05-10T22:04:06.356Z,100385.44
2023-05-10T22:07:08.724Z,100383.19
2023-05-10T22:10:11.290Z,100385.94
2023-05-10T22:13:13.625Z,100383.09
2023-05-10T22:16:16.478Z,100378.91
2023-05-10T22:19:19.007Z,100376.22
2023-05-10T22:22:22.491Z,100372.56
2023-05-10T22:25:24.816Z,100378.25
2023-05-10T22:28:27.143Z,100377.81
2023-05-10T22:31:29.617Z,100374.03
2023-05-10T22:34:35.802Z,100368.03
2023-05-10T22:37:38.116Z,100372.22
2023-05-10T22:40:41.279Z,100373.44
2023-05-10T22:43:44.925Z,100370.22
2023-05-10T22:46:47.331Z,100371.47
2023-05-10T22:49:49.699Z,100369.66
2023-05-10T22:52:52.131Z,100369.88
2023-05-10T22:55:54.517Z,100369.88
2023-05-10T22:58:56.916Z,100370.09
2023-05-10T23:01:59.264Z,100379.69
2023-05-10T23:05:01.632Z,100378.91
2023-05-10T23:08:04.039Z,100373.31
2023-05-10T23:11:06.357Z,100347.72
2023-05-10T23:14:08.652Z,100369.50
2023-05-10T23:17:11.008Z,100363.59
2023-05-10T23:20:13.435Z,100366.53
2023-05-10T23:23:15.874Z,100367.13
2023-05-10T23:26:18.206Z,100358.34
2023-05-10T23:29:20.542Z,100345.16
2023-05-10T23:32:23.189Z,100355.16
2023-05-10T23:35:25.590Z,100361.63
2023-05-10T23:38:27.925Z,100362.00
2023-05-10T23:41:30.228Z,100357.97
2023-05-10T23:44:32.525Z,100352.38
2023-05-10T23:47:34.879Z,100354.59
2023-05-10T23:50:37.238Z,100357.44
2023-05-10T23:53:39.557Z,100356.44
2023-05-10T23:56:42.028Z,100351.78
2023-05-10T23:59:44.487Z,100352.44
